sensor_id;sensor_type;location;lat;lon;timestamp;P1;durP1;ratioP1;P2;durP2;ratioP2
7365;SDS011;3723;52.220;8.792;2024-01-10T00:01:00;13.05;;;4.90;;
7365;SDS011;3723;52.220;8.792;2024-01-10T00:03:27;14.32;;;4.95;;
7365;SDS011;3723;52.220;8.792;2024-01-10T00:05:55;17.42;;;5.15;;
7365;SDS011;3723;52.220;8.792;2024-01-10T00:08:22;15.70;;;4.60;;
7365;SDS011;3723;52.220;8.792;2024-01-10T00:10:49;15.80;;;6.03;;
7365;SDS011;3723;52.220;8.792;2024-01-10T00:13:20;18.52;;;6.40;;
7365;SDS011;3723;52.220;8.792;2024-01-10T00:15:47;16.83;;;5.18;;
7365;SDS011;3723;52.220;8.792;2024-01-10T00:18:14;16.77;;;5.65;;
7365;SDS011;3723;52.220;8.792;2024-01-10T00:20:41;15.20;;;6.13;;
7365;SDS011;3723;52.220;8.792;2024-01-10T00:23:08;17.75;;;6.13;;
7365;SDS011;3723;52.220;8.792;2024-01-10T00:25:35;15.55;;;5.00;;
7365;SDS011;3723;52.220;8.792;2024-01-10T00:28:02;14.45;;;5.28;;
7365;SDS011;3723;52.220;8.792;2024-01-10T00:30:30;15.80;;;5.70;;
7365;SDS011;3723;52.220;8.792;2024-01-10T00:32:57;15.23;;;5.35;;
7365;SDS011;3723;52.220;8.792;2024-01-10T00:35:24;16.75;;;5.75;;
7365;SDS011;3723;52.220;8.792;2024-01-10T00:37:51;11.15;;;3.70;;
7365;SDS011;3723;52.220;8.792;2024-01-10T00:40:18;9.00;;;2.45;;
7365;SDS011;3723;52.220;8.792;2024-01-10T00:42:45;9.50;;;2.83;;
7365;SDS011;3723;52.220;8.792;2024-01-10T00:45:11;14.15;;;4.30;;
7365;SDS011;3723;52.220;8.792;2024-01-10T00:47:40;14.50;;;5.68;;
7365;SDS011;3723;52.220;8.792;2024-01-10T00:50:07;12.38;;;3.78;;
7365;SDS011;3723;52.220;8.792;2024-01-10T00:52:35;13.65;;;5.63;;
7365;SDS011;3723;52.220;8.792;2024-01-10T00:55:02;22.02;;;6.78;;
7365;SDS011;3723;52.220;8.792;2024-01-10T00:57:30;15.93;;;5.38;;
7365;SDS011;3723;52.220;8.792;2024-01-10T00:59:57;12.00;;;3.13;;
7365;SDS011;3723;52.220;8.792;2024-01-10T01:02:23;14.98;;;4.78;;
7365;SDS011;3723;52.220;8.792;2024-01-10T01:04:52;10.55;;;3.13;;
7365;SDS011;3723;52.220;8.792;2024-01-10T01:07:19;14.60;;;4.93;;
7365;SDS011;3723;52.220;8.792;2024-01-10T01:09:45;14.88;;;4.70;;
7365;SDS011;3723;52.220;8.792;2024-01-10T01:12:12;13.77;;;4.90;;
7365;SDS011;3723;52.220;8.792;2024-01-10T01:14:39;17.08;;;5.47;;
7365;SDS011;3723;52.220;8.792;2024-01-10T01:17:06;18.25;;;4.95;;
7365;SDS011;3723;52.220;8.792;2024-01-10T01:19:32;17.92;;;5.50;;
7365;SDS011;3723;52.220;8.792;2024-01-10T01:22:01;12.70;;;4.22;;
7365;SDS011;3723;52.220;8.792;2024-01-10T01:24:28;12.43;;;4.10;;
7365;SDS011;3723;52.220;8.792;2024-01-10T01:26:54;17.90;;;6.75;;
7365;SDS011;3723;52.220;8.792;2024-01-10T01:29:21;16.25;;;5.35;;
7365;SDS011;3723;52.220;8.792;2024-01-10T01:31:49;17.25;;;5.53;;
7365;SDS011;3723;52.220;8.792;2024-01-10T01:34:17;13.38;;;4.25;;
7365;SDS011;3723;52.220;8.792;2024-01-10T01:36:44;14.45;;;4.10;;
7365;SDS011;3723;52.220;8.792;2024-01-10T01:39:12;15.40;;;4.40;;
7365;SDS011;3723;52.220;8.792;2024-01-10T01:41:39;16.65;;;5.05;;
7365;SDS011;3723;52.220;8.792;2024-01-10T01:44:07;14.88;;;5.20;;
7365;SDS011;3723;52.220;8.792;2024-01-10T01:46:34;15.75;;;6.40;;
7365;SDS011;3723;52.220;8.792;2024-01-10T01:49:01;18.88;;;6.18;;
7365;SDS011;3723;52.220;8.792;2024-01-10T01:51:29;15.20;;;4.85;;
7365;SDS011;3723;52.220;8.792;2024-01-10T01:53:58;14.15;;;5.43;;
7365;SDS011;3723;52.220;8.792;2024-01-10T01:56:26;20.30;;;6.25;;
7365;SDS011;3723;52.220;8.792;2024-01-10T01:58:53;26.90;;;6.72;;
7365;SDS011;3723;52.220;8.792;2024-01-10T02:01:20;17.92;;;7.25;;
7365;SDS011;3723;52.220;8.792;2024-01-10T02:03:48;16.30;;;5.20;;
7365;SDS011;3723;52.220;8.792;2024-01-10T02:06:14;16.58;;;5.80;;
7365;SDS011;3723;52.220;8.792;2024-01-10T02:08:41;19.05;;;6.55;;
7365;SDS011;3723;52.220;8.792;2024-01-10T02:11:08;16.42;;;5.47;;
7365;SDS011;3723;52.220;8.792;2024-01-10T02:13:36;16.20;;;5.57;;
7365;SDS011;3723;52.220;8.792;2024-01-10T02:16:04;19.63;;;6.57;;
7365;SDS011;3723;52.220;8.792;2024-01-10T02:18:31;16.30;;;5.22;;
7365;SDS011;3723;52.220;8.792;2024-01-10T02:21:00;24.48;;;7.28;;
7365;SDS011;3723;52.220;8.792;2024-01-10T02:23:26;21.48;;;8.20;;
7365;SDS011;3723;52.220;8.792;2024-01-10T02:25:55;16.40;;;5.18;;
7365;SDS011;3723;52.220;8.792;2024-01-10T02:28:21;15.40;;;5.68;;
7365;SDS011;3723;52.220;8.792;2024-01-10T02:30:49;20.55;;;7.00;;
7365;SDS011;3723;52.220;8.792;2024-01-10T02:33:17;21.58;;;7.72;;
7365;SDS011;3723;52.220;8.792;2024-01-10T02:35:43;22.63;;;7.28;;
7365;SDS011;3723;52.220;8.792;2024-01-10T02:38:10;16.30;;;5.00;;
7365;SDS011;3723;52.220;8.792;2024-01-10T02:40:37;21.27;;;7.97;;
7365;SDS011;3723;52.220;8.792;2024-01-10T02:43:05;20.52;;;6.60;;
7365;SDS011;3723;52.220;8.792;2024-01-10T02:45:32;22.05;;;7.65;;
7365;SDS011;3723;52.220;8.792;2024-01-10T02:48:00;17.35;;;5.75;;
7365;SDS011;3723;52.220;8.792;2024-01-10T02:50:29;16.48;;;6.35;;
7365;SDS011;3723;52.220;8.792;2024-01-10T02:52:55;21.45;;;6.95;;
7365;SDS011;3723;52.220;8.792;2024-01-10T02:55:22;19.67;;;7.10;;
7365;SDS011;3723;52.220;8.792;2024-01-10T02:57:49;17.15;;;7.03;;
7365;SDS011;3723;52.220;8.792;2024-01-10T03:00:17;18.65;;;5.63;;
7365;SDS011;3723;52.220;8.792;2024-01-10T03:02:44;26.80;;;5.80;;
7365;SDS011;3723;52.220;8.792;2024-01-10T03:05:11;22.70;;;9.00;;
7365;SDS011;3723;52.220;8.792;2024-01-10T03:07:38;21.33;;;7.88;;
7365;SDS011;3723;52.220;8.792;2024-01-10T03:10:05;21.27;;;7.03;;
7365;SDS011;3723;52.220;8.792;2024-01-10T03:12:33;15.73;;;5.72;;
7365;SDS011;3723;52.220;8.792;2024-01-10T03:15:02;26.20;;;6.38;;
7365;SDS011;3723;52.220;8.792;2024-01-10T03:17:31;18.52;;;6.55;;
7365;SDS011;3723;52.220;8.792;2024-01-10T03:19:58;16.95;;;5.10;;
7365;SDS011;3723;52.220;8.792;2024-01-10T03:22:25;17.52;;;7.10;;
7365;SDS011;3723;52.220;8.792;2024-01-10T03:24:52;18.35;;;5.78;;
7365;SDS011;3723;52.220;8.792;2024-01-10T03:27:20;19.98;;;6.45;;
7365;SDS011;3723;52.220;8.792;2024-01-10T03:29:47;17.08;;;5.75;;
7365;SDS011;3723;52.220;8.792;2024-01-10T03:32:14;16.48;;;5.90;;
7365;SDS011;3723;52.220;8.792;2024-01-10T03:34:42;18.63;;;7.57;;
7365;SDS011;3723;52.220;8.792;2024-01-10T03:37:09;14.73;;;6.00;;
7365;SDS011;3723;52.220;8.792;2024-01-10T03:39:35;22.17;;;6.95;;
7365;SDS011;3723;52.220;8.792;2024-01-10T03:42:02;11.05;;;3.28;;
7365;SDS011;3723;52.220;8.792;2024-01-10T03:44:29;18.58;;;6.88;;
7365;SDS011;3723;52.220;8.792;2024-01-10T03:46:56;16.67;;;6.65;;
7365;SDS011;3723;52.220;8.792;2024-01-10T03:49:23;14.07;;;4.78;;
7365;SDS011;3723;52.220;8.792;2024-01-10T03:51:51;17.67;;;6.75;;
7365;SDS011;3723;52.220;8.792;2024-01-10T03:54:18;18.02;;;6.72;;
7365;SDS011;3723;52.220;8.792;2024-01-10T03:56:45;18.90;;;6.75;;
7365;SDS011;3723;52.220;8.792;2024-01-10T03:59:12;16.20;;;6.30;;
7365;SDS011;3723;52.220;8.792;2024-01-10T04:01:39;21.30;;;6.50;;
7365;SDS011;3723;52.220;8.792;2024-01-10T04:04:05;23.75;;;8.93;;
7365;SDS011;3723;52.220;8.792;2024-01-10T04:06:32;17.92;;;5.95;;
7365;SDS011;3723;52.220;8.792;2024-01-10T04:09:01;20.60;;;6.07;;
7365;SDS011;3723;52.220;8.792;2024-01-10T04:11:28;19.95;;;7.22;;
7365;SDS011;3723;52.220;8.792;2024-01-10T04:13:54;17.13;;;6.82;;
7365;SDS011;3723;52.220;8.792;2024-01-10T04:16:21;19.88;;;7.88;;
7365;SDS011;3723;52.220;8.792;2024-01-10T04:18:48;15.00;;;5.55;;
7365;SDS011;3723;52.220;8.792;2024-01-10T04:21:15;18.15;;;6.05;;
7365;SDS011;3723;52.220;8.792;2024-01-10T04:23:42;19.45;;;6.13;;
7365;SDS011;3723;52.220;8.792;2024-01-10T04:26:10;22.10;;;8.75;;
7365;SDS011;3723;52.220;8.792;2024-01-10T04:28:37;20.67;;;6.57;;
7365;SDS011;3723;52.220;8.792;2024-01-10T04:31:06;19.45;;;7.05;;
7365;SDS011;3723;52.220;8.792;2024-01-10T04:33:33;20.23;;;7.18;;
7365;SDS011;3723;52.220;8.792;2024-01-10T04:36:00;20.60;;;7.30;;
7365;SDS011;3723;52.220;8.792;2024-01-10T04:38:27;20.67;;;6.65;;
7365;SDS011;3723;52.220;8.792;2024-01-10T04:40:53;18.90;;;7.22;;
7365;SDS011;3723;52.220;8.792;2024-01-10T04:43:22;16.70;;;5.45;;
7365;SDS011;3723;52.220;8.792;2024-01-10T04:45:49;16.88;;;5.32;;
7365;SDS011;3723;52.220;8.792;2024-01-10T04:48:16;18.70;;;6.47;;
7365;SDS011;3723;52.220;8.792;2024-01-10T04:50:43;23.00;;;7.45;;
7365;SDS011;3723;52.220;8.792;2024-01-10T04:53:10;16.45;;;6.03;;
7365;SDS011;3723;52.220;8.792;2024-01-10T04:55:37;16.48;;;4.72;;
7365;SDS011;3723;52.220;8.792;2024-01-10T04:58:04;14.07;;;4.78;;
7365;SDS011;3723;52.220;8.792;2024-01-10T05:00:32;11.95;;;3.90;;
7365;SDS011;3723;52.220;8.792;2024-01-10T05:02:59;17.20;;;6.85;;
7365;SDS011;3723;52.220;8.792;2024-01-10T05:05:25;15.43;;;6.05;;
7365;SDS011;3723;52.220;8.792;2024-01-10T05:07:52;18.88;;;6.75;;
7365;SDS011;3723;52.220;8.792;2024-01-10T05:10:19;21.92;;;7.90;;
7365;SDS011;3723;52.220;8.792;2024-01-10T05:12:46;23.88;;;7.88;;
7365;SDS011;3723;52.220;8.792;2024-01-10T05:15:13;22.85;;;6.95;;
7365;SDS011;3723;52.220;8.792;2024-01-10T05:17:41;23.73;;;7.85;;
7365;SDS011;3723;52.220;8.792;2024-01-10T05:20:09;22.92;;;7.40;;
7365;SDS011;3723;52.220;8.792;2024-01-10T05:22:36;23.38;;;9.15;;
7365;SDS011;3723;52.220;8.792;2024-01-10T05:25:03;17.77;;;7.88;;
7365;SDS011;3723;52.220;8.792;2024-01-10T05:27:31;22.80;;;8.25;;
7365;SDS011;3723;52.220;8.792;2024-01-10T05:29:57;26.00;;;7.75;;
7365;SDS011;3723;52.220;8.792;2024-01-10T05:32:25;25.90;;;7.78;;
7365;SDS011;3723;52.220;8.792;2024-01-10T05:34:53;24.63;;;8.70;;
7365;SDS011;3723;52.220;8.792;2024-01-10T05:37:20;23.35;;;8.15;;
7365;SDS011;3723;52.220;8.792;2024-01-10T05:39:47;27.80;;;8.40;;
7365;SDS011;3723;52.220;8.792;2024-01-10T05:42:14;19.13;;;7.38;;
7365;SDS011;3723;52.220;8.792;2024-01-10T05:44:41;22.90;;;8.20;;
7365;SDS011;3723;52.220;8.792;2024-01-10T05:47:08;20.85;;;7.65;;
7365;SDS011;3723;52.220;8.792;2024-01-10T05:49:34;18.27;;;6.15;;
7365;SDS011;3723;52.220;8.792;2024-01-10T05:52:03;23.15;;;9.32;;
7365;SDS011;3723;52.220;8.792;2024-01-10T05:54:30;28.35;;;7.82;;
7365;SDS011;3723;52.220;8.792;2024-01-10T05:56:56;30.10;;;8.60;;
7365;SDS011;3723;52.220;8.792;2024-01-10T05:59:25;15.60;;;4.53;;
7365;SDS011;3723;52.220;8.792;2024-01-10T06:01:52;24.13;;;8.75;;
7365;SDS011;3723;52.220;8.792;2024-01-10T06:04:19;16.38;;;5.38;;
7365;SDS011;3723;52.220;8.792;2024-01-10T06:06:46;13.90;;;4.45;;
7365;SDS011;3723;52.220;8.792;2024-01-10T06:09:14;16.48;;;4.97;;
7365;SDS011;3723;52.220;8.792;2024-01-10T06:11:47;14.98;;;4.50;;
7365;SDS011;3723;52.220;8.792;2024-01-10T06:14:14;15.15;;;4.82;;
7365;SDS011;3723;52.220;8.792;2024-01-10T06:16:40;14.45;;;4.53;;
7365;SDS011;3723;52.220;8.792;2024-01-10T06:19:08;22.27;;;7.25;;
7365;SDS011;3723;52.220;8.792;2024-01-10T06:21:36;23.63;;;7.60;;
7365;SDS011;3723;52.220;8.792;2024-01-10T06:24:03;39.10;;;13.52;;
7365;SDS011;3723;52.220;8.792;2024-01-10T06:26:32;23.83;;;8.55;;
7365;SDS011;3723;52.220;8.792;2024-01-10T06:29:00;23.42;;;9.07;;
7365;SDS011;3723;52.220;8.792;2024-01-10T06:31:26;23.95;;;7.57;;
7365;SDS011;3723;52.220;8.792;2024-01-10T06:33:53;15.10;;;5.30;;
7365;SDS011;3723;52.220;8.792;2024-01-10T06:36:21;19.45;;;6.72;;
7365;SDS011;3723;52.220;8.792;2024-01-10T06:38:48;22.67;;;7.57;;
7365;SDS011;3723;52.220;8.792;2024-01-10T06:41:15;19.60;;;7.55;;
7365;SDS011;3723;52.220;8.792;2024-01-10T06:43:45;21.63;;;7.40;;
7365;SDS011;3723;52.220;8.792;2024-01-10T06:46:20;24.35;;;9.70;;
7365;SDS011;3723;52.220;8.792;2024-01-10T06:48:47;18.38;;;7.20;;
7365;SDS011;3723;52.220;8.792;2024-01-10T06:51:14;20.52;;;8.23;;
7365;SDS011;3723;52.220;8.792;2024-01-10T06:53:42;22.35;;;7.03;;
7365;SDS011;3723;52.220;8.792;2024-01-10T06:56:09;18.02;;;6.90;;
7365;SDS011;3723;52.220;8.792;2024-01-10T06:58:36;28.40;;;9.68;;
7365;SDS011;3723;52.220;8.792;2024-01-10T07:01:10;23.50;;;7.18;;
7365;SDS011;3723;52.220;8.792;2024-01-10T07:03:38;25.02;;;8.27;;
7365;SDS011;3723;52.220;8.792;2024-01-10T07:06:05;20.02;;;8.20;;
7365;SDS011;3723;52.220;8.792;2024-01-10T07:08:32;23.90;;;6.82;;
7365;SDS011;3723;52.220;8.792;2024-01-10T07:10:59;23.45;;;10.07;;
7365;SDS011;3723;52.220;8.792;2024-01-10T07:13:26;22.45;;;8.35;;
7365;SDS011;3723;52.220;8.792;2024-01-10T07:15:53;19.88;;;7.95;;
7365;SDS011;3723;52.220;8.792;2024-01-10T07:18:21;18.42;;;6.78;;
7365;SDS011;3723;52.220;8.792;2024-01-10T07:20:48;24.42;;;8.52;;
7365;SDS011;3723;52.220;8.792;2024-01-10T07:23:15;18.90;;;6.88;;
7365;SDS011;3723;52.220;8.792;2024-01-10T07:25:42;26.38;;;8.18;;
7365;SDS011;3723;52.220;8.792;2024-01-10T07:28:09;22.42;;;7.25;;
7365;SDS011;3723;52.220;8.792;2024-01-10T07:30:35;27.63;;;8.43;;
7365;SDS011;3723;52.220;8.792;2024-01-10T07:33:02;21.10;;;8.10;;
7365;SDS011;3723;52.220;8.792;2024-01-10T07:35:31;20.10;;;7.53;;
7365;SDS011;3723;52.220;8.792;2024-01-10T07:37:58;20.38;;;7.78;;
7365;SDS011;3723;52.220;8.792;2024-01-10T07:40:25;21.00;;;7.80;;
7365;SDS011;3723;52.220;8.792;2024-01-10T07:42:52;19.52;;;8.60;;
7365;SDS011;3723;52.220;8.792;2024-01-10T07:45:19;18.58;;;7.95;;
7365;SDS011;3723;52.220;8.792;2024-01-10T07:47:45;23.50;;;8.07;;
7365;SDS011;3723;52.220;8.792;2024-01-10T07:50:13;21.15;;;7.75;;
7365;SDS011;3723;52.220;8.792;2024-01-10T07:52:43;30.45;;;9.00;;
7365;SDS011;3723;52.220;8.792;2024-01-10T07:55:11;17.92;;;6.22;;
7365;SDS011;3723;52.220;8.792;2024-01-10T07:57:38;20.50;;;7.82;;
7365;SDS011;3723;52.220;8.792;2024-01-10T08:00:07;23.15;;;7.57;;
7365;SDS011;3723;52.220;8.792;2024-01-10T08:02:35;21.35;;;8.50;;
7365;SDS011;3723;52.220;8.792;2024-01-10T08:05:02;26.42;;;8.32;;
7365;SDS011;3723;52.220;8.792;2024-01-10T08:07:33;24.88;;;7.95;;
7365;SDS011;3723;52.220;8.792;2024-01-10T08:10:03;23.60;;;9.10;;
7365;SDS011;3723;52.220;8.792;2024-01-10T08:12:41;21.70;;;7.07;;
7365;SDS011;3723;52.220;8.792;2024-01-10T08:15:09;24.63;;;9.50;;
7365;SDS011;3723;52.220;8.792;2024-01-10T08:17:36;25.42;;;9.07;;
7365;SDS011;3723;52.220;8.792;2024-01-10T08:20:04;21.40;;;7.85;;
7365;SDS011;3723;52.220;8.792;2024-01-10T08:22:32;19.83;;;7.40;;
7365;SDS011;3723;52.220;8.792;2024-01-10T08:24:59;22.02;;;8.35;;
7365;SDS011;3723;52.220;8.792;2024-01-10T08:27:27;32.47;;;10.73;;
7365;SDS011;3723;52.220;8.792;2024-01-10T08:29:54;33.78;;;10.48;;
7365;SDS011;3723;52.220;8.792;2024-01-10T08:32:21;28.05;;;9.05;;
7365;SDS011;3723;52.220;8.792;2024-01-10T08:34:48;20.42;;;8.10;;
7365;SDS011;3723;52.220;8.792;2024-01-10T08:37:14;27.10;;;12.00;;
7365;SDS011;3723;52.220;8.792;2024-01-10T08:39:42;29.25;;;10.50;;
7365;SDS011;3723;52.220;8.792;2024-01-10T08:42:10;32.13;;;14.02;;
7365;SDS011;3723;52.220;8.792;2024-01-10T08:44:38;27.88;;;9.65;;
7365;SDS011;3723;52.220;8.792;2024-01-10T08:47:05;30.38;;;12.07;;
7365;SDS011;3723;52.220;8.792;2024-01-10T08:49:32;27.73;;;10.68;;
7365;SDS011;3723;52.220;8.792;2024-01-10T08:51:59;28.70;;;12.02;;
7365;SDS011;3723;52.220;8.792;2024-01-10T08:54:26;30.98;;;9.75;;
7365;SDS011;3723;52.220;8.792;2024-01-10T08:56:53;23.83;;;9.30;;
7365;SDS011;3723;52.220;8.792;2024-01-10T08:59:20;36.03;;;10.75;;
7365;SDS011;3723;52.220;8.792;2024-01-10T09:01:49;27.80;;;9.23;;
7365;SDS011;3723;52.220;8.792;2024-01-10T09:04:17;25.45;;;9.65;;
7365;SDS011;3723;52.220;8.792;2024-01-10T09:06:45;25.60;;;9.82;;
7365;SDS011;3723;52.220;8.792;2024-01-10T09:09:12;34.63;;;12.20;;
7365;SDS011;3723;52.220;8.792;2024-01-10T09:11:39;25.73;;;8.07;;
7365;SDS011;3723;52.220;8.792;2024-01-10T09:14:06;20.23;;;7.78;;
7365;SDS011;3723;52.220;8.792;2024-01-10T09:16:34;27.13;;;10.88;;
7365;SDS011;3723;52.220;8.792;2024-01-10T09:19:02;26.98;;;9.50;;
7365;SDS011;3723;52.220;8.792;2024-01-10T09:21:29;22.48;;;8.80;;
7365;SDS011;3723;52.220;8.792;2024-01-10T09:23:56;22.95;;;7.90;;
7365;SDS011;3723;52.220;8.792;2024-01-10T09:26:23;26.35;;;9.48;;
7365;SDS011;3723;52.220;8.792;2024-01-10T09:28:49;28.55;;;9.18;;
7365;SDS011;3723;52.220;8.792;2024-01-10T09:31:17;27.65;;;9.20;;
7365;SDS011;3723;52.220;8.792;2024-01-10T09:33:43;24.20;;;9.98;;
7365;SDS011;3723;52.220;8.792;2024-01-10T09:36:12;24.38;;;9.38;;
7365;SDS011;3723;52.220;8.792;2024-01-10T09:38:39;24.25;;;7.35;;
7365;SDS011;3723;52.220;8.792;2024-01-10T09:41:06;20.38;;;7.90;;
7365;SDS011;3723;52.220;8.792;2024-01-10T09:43:33;24.27;;;8.35;;
7365;SDS011;3723;52.220;8.792;2024-01-10T09:46:01;22.13;;;7.68;;
7365;SDS011;3723;52.220;8.792;2024-01-10T09:48:30;21.52;;;7.57;;
7365;SDS011;3723;52.220;8.792;2024-01-10T09:50:57;26.73;;;9.45;;
7365;SDS011;3723;52.220;8.792;2024-01-10T09:53:27;21.45;;;8.80;;
7365;SDS011;3723;52.220;8.792;2024-01-10T09:55:56;17.85;;;8.50;;
7365;SDS011;3723;52.220;8.792;2024-01-10T09:58:25;25.35;;;8.73;;
7365;SDS011;3723;52.220;8.792;2024-01-10T10:00:52;28.33;;;7.80;;
7365;SDS011;3723;52.220;8.792;2024-01-10T10:03:19;22.50;;;8.27;;
7365;SDS011;3723;52.220;8.792;2024-01-10T10:05:47;21.88;;;7.30;;
7365;SDS011;3723;52.220;8.792;2024-01-10T10:08:14;24.88;;;9.43;;
7365;SDS011;3723;52.220;8.792;2024-01-10T10:10:49;30.50;;;10.02;;
7365;SDS011;3723;52.220;8.792;2024-01-10T10:13:25;28.52;;;9.45;;
7365;SDS011;3723;52.220;8.792;2024-01-10T10:15:59;24.20;;;8.57;;
7365;SDS011;3723;52.220;8.792;2024-01-10T10:18:27;25.90;;;9.07;;
7365;SDS011;3723;52.220;8.792;2024-01-10T10:21:07;26.30;;;9.32;;
7365;SDS011;3723;52.220;8.792;2024-01-10T10:23:35;25.77;;;9.30;;
7365;SDS011;3723;52.220;8.792;2024-01-10T10:26:11;26.77;;;10.40;;
7365;SDS011;3723;52.220;8.792;2024-01-10T10:28:44;29.10;;;10.35;;
7365;SDS011;3723;52.220;8.792;2024-01-10T10:31:11;23.00;;;8.57;;
7365;SDS011;3723;52.220;8.792;2024-01-10T10:33:38;24.47;;;8.03;;
7365;SDS011;3723;52.220;8.792;2024-01-10T10:36:05;29.20;;;10.60;;
7365;SDS011;3723;52.220;8.792;2024-01-10T10:38:33;26.83;;;9.50;;
7365;SDS011;3723;52.220;8.792;2024-01-10T10:41:00;27.57;;;9.17;;
7365;SDS011;3723;52.220;8.792;2024-01-10T10:43:29;21.30;;;8.17;;
7365;SDS011;3723;52.220;8.792;2024-01-10T10:45:58;31.27;;;8.93;;
7365;SDS011;3723;52.220;8.792;2024-01-10T10:48:26;24.50;;;8.20;;
7365;SDS011;3723;52.220;8.792;2024-01-10T10:50:59;20.40;;;6.83;;
7365;SDS011;3723;52.220;8.792;2024-01-10T10:53:33;23.20;;;8.50;;
7365;SDS011;3723;52.220;8.792;2024-01-10T10:56:01;25.63;;;9.27;;
7365;SDS011;3723;52.220;8.792;2024-01-10T10:58:31;24.50;;;9.50;;
7365;SDS011;3723;52.220;8.792;2024-01-10T11:01:01;29.00;;;10.57;;
7365;SDS011;3723;52.220;8.792;2024-01-10T11:03:30;19.40;;;7.37;;
7365;SDS011;3723;52.220;8.792;2024-01-10T11:05:59;22.03;;;8.30;;
7365;SDS011;3723;52.220;8.792;2024-01-10T11:08:29;22.80;;;9.03;;
7365;SDS011;3723;52.220;8.792;2024-01-10T11:11:00;26.33;;;10.00;;
7365;SDS011;3723;52.220;8.792;2024-01-10T11:13:36;24.40;;;7.97;;
7365;SDS011;3723;52.220;8.792;2024-01-10T11:19:15;25.20;;;8.20;;
7365;SDS011;3723;52.220;8.792;2024-01-10T11:21:56;25.83;;;9.70;;
7365;SDS011;3723;52.220;8.792;2024-01-10T11:24:33;29.23;;;11.10;;
7365;SDS011;3723;52.220;8.792;2024-01-10T11:27:09;26.33;;;10.23;;
7365;SDS011;3723;52.220;8.792;2024-01-10T11:29:39;31.20;;;11.73;;
7365;SDS011;3723;52.220;8.792;2024-01-10T11:32:07;34.10;;;11.67;;
7365;SDS011;3723;52.220;8.792;2024-01-10T11:34:48;29.77;;;10.13;;
7365;SDS011;3723;52.220;8.792;2024-01-10T11:37:16;25.83;;;10.47;;
7365;SDS011;3723;52.220;8.792;2024-01-10T11:39:43;23.90;;;8.20;;
7365;SDS011;3723;52.220;8.792;2024-01-10T11:42:11;23.53;;;8.50;;
7365;SDS011;3723;52.220;8.792;2024-01-10T11:44:51;32.47;;;11.30;;
7365;SDS011;3723;52.220;8.792;2024-01-10T11:47:19;32.13;;;11.57;;
7365;SDS011;3723;52.220;8.792;2024-01-10T11:49:55;32.27;;;11.07;;
7365;SDS011;3723;52.220;8.792;2024-01-10T11:52:31;28.17;;;10.33;;
7365;SDS011;3723;52.220;8.792;2024-01-10T11:54:59;23.87;;;9.03;;
7365;SDS011;3723;52.220;8.792;2024-01-10T11:57:28;33.13;;;11.63;;
7365;SDS011;3723;52.220;8.792;2024-01-10T11:59:58;26.97;;;10.43;;
7365;SDS011;3723;52.220;8.792;2024-01-10T12:02:26;34.37;;;9.70;;
7365;SDS011;3723;52.220;8.792;2024-01-10T12:04:53;34.67;;;13.10;;
7365;SDS011;3723;52.220;8.792;2024-01-10T12:07:21;23.83;;;8.23;;
7365;SDS011;3723;52.220;8.792;2024-01-10T12:09:48;30.47;;;10.83;;
7365;SDS011;3723;52.220;8.792;2024-01-10T12:12:16;24.40;;;9.30;;
7365;SDS011;3723;52.220;8.792;2024-01-10T12:14:43;27.30;;;10.37;;
7365;SDS011;3723;52.220;8.792;2024-01-10T12:17:12;25.00;;;8.27;;
7365;SDS011;3723;52.220;8.792;2024-01-10T12:19:39;27.57;;;9.57;;
7365;SDS011;3723;52.220;8.792;2024-01-10T12:22:09;28.17;;;11.20;;
7365;SDS011;3723;52.220;8.792;2024-01-10T12:24:42;28.37;;;9.60;;
7365;SDS011;3723;52.220;8.792;2024-01-10T12:27:11;30.23;;;10.30;;
7365;SDS011;3723;52.220;8.792;2024-01-10T12:29:38;24.87;;;9.00;;
7365;SDS011;3723;52.220;8.792;2024-01-10T12:32:05;27.30;;;7.90;;
7365;SDS011;3723;52.220;8.792;2024-01-10T12:34:38;28.60;;;10.43;;
7365;SDS011;3723;52.220;8.792;2024-01-10T12:37:05;26.27;;;9.63;;
7365;SDS011;3723;52.220;8.792;2024-01-10T12:39:32;23.70;;;9.10;;
7365;SDS011;3723;52.220;8.792;2024-01-10T12:41:59;26.10;;;10.20;;
7365;SDS011;3723;52.220;8.792;2024-01-10T12:44:27;24.40;;;8.63;;
7365;SDS011;3723;52.220;8.792;2024-01-10T12:46:55;23.90;;;9.00;;
7365;SDS011;3723;52.220;8.792;2024-01-10T12:49:22;40.83;;;10.10;;
7365;SDS011;3723;52.220;8.792;2024-01-10T12:51:50;31.60;;;10.97;;
7365;SDS011;3723;52.220;8.792;2024-01-10T12:54:17;23.90;;;9.57;;
7365;SDS011;3723;52.220;8.792;2024-01-10T12:56:44;26.03;;;8.87;;
7365;SDS011;3723;52.220;8.792;2024-01-10T12:59:12;27.03;;;10.40;;
7365;SDS011;3723;52.220;8.792;2024-01-10T13:01:41;31.40;;;11.50;;
7365;SDS011;3723;52.220;8.792;2024-01-10T13:04:08;31.90;;;11.60;;
7365;SDS011;3723;52.220;8.792;2024-01-10T13:06:36;38.77;;;12.87;;
7365;SDS011;3723;52.220;8.792;2024-01-10T13:09:05;25.87;;;9.77;;
7365;SDS011;3723;52.220;8.792;2024-01-10T13:11:32;31.10;;;11.03;;
7365;SDS011;3723;52.220;8.792;2024-01-10T13:13:59;25.57;;;9.53;;
7365;SDS011;3723;52.220;8.792;2024-01-10T13:16:26;29.47;;;11.37;;
7365;SDS011;3723;52.220;8.792;2024-01-10T13:18:53;31.07;;;13.30;;
7365;SDS011;3723;52.220;8.792;2024-01-10T13:21:22;29.70;;;12.60;;
7365;SDS011;3723;52.220;8.792;2024-01-10T13:23:49;28.87;;;10.57;;
7365;SDS011;3723;52.220;8.792;2024-01-10T13:26:17;41.10;;;14.80;;
7365;SDS011;3723;52.220;8.792;2024-01-10T13:28:44;26.07;;;11.20;;
7365;SDS011;3723;52.220;8.792;2024-01-10T13:31:12;34.20;;;13.00;;
7365;SDS011;3723;52.220;8.792;2024-01-10T13:33:40;26.87;;;10.30;;
7365;SDS011;3723;52.220;8.792;2024-01-10T13:36:07;27.50;;;10.03;;
7365;SDS011;3723;52.220;8.792;2024-01-10T13:38:34;30.13;;;10.93;;
7365;SDS011;3723;52.220;8.792;2024-01-10T13:41:01;27.63;;;9.53;;
7365;SDS011;3723;52.220;8.792;2024-01-10T13:43:31;32.50;;;12.47;;
7365;SDS011;3723;52.220;8.792;2024-01-10T13:45:58;30.17;;;11.47;;
7365;SDS011;3723;52.220;8.792;2024-01-10T13:48:26;34.00;;;11.67;;
7365;SDS011;3723;52.220;8.792;2024-01-10T13:50:53;29.17;;;10.73;;
7365;SDS011;3723;52.220;8.792;2024-01-10T13:53:20;27.73;;;10.83;;
7365;SDS011;3723;52.220;8.792;2024-01-10T13:55:47;28.47;;;10.90;;
7365;SDS011;3723;52.220;8.792;2024-01-10T13:58:15;32.40;;;12.27;;
7365;SDS011;3723;52.220;8.792;2024-01-10T14:00:45;26.80;;;9.30;;
7365;SDS011;3723;52.220;8.792;2024-01-10T14:03:12;30.20;;;10.73;;
7365;SDS011;3723;52.220;8.792;2024-01-10T14:05:40;29.53;;;10.30;;
7365;SDS011;3723;52.220;8.792;2024-01-10T14:08:07;29.23;;;10.00;;
7365;SDS011;3723;52.220;8.792;2024-01-10T14:10:34;26.70;;;10.07;;
7365;SDS011;3723;52.220;8.792;2024-01-10T14:13:01;27.50;;;11.07;;
7365;SDS011;3723;52.220;8.792;2024-01-10T14:15:28;34.83;;;11.80;;
7365;SDS011;3723;52.220;8.792;2024-01-10T14:17:56;25.03;;;10.47;;
7365;SDS011;3723;52.220;8.792;2024-01-10T14:20:23;31.53;;;12.57;;
7365;SDS011;3723;52.220;8.792;2024-01-10T14:22:50;28.60;;;10.20;;
7365;SDS011;3723;52.220;8.792;2024-01-10T14:25:17;27.00;;;10.83;;
7365;SDS011;3723;52.220;8.792;2024-01-10T14:27:45;38.77;;;13.60;;
7365;SDS011;3723;52.220;8.792;2024-01-10T14:30:12;32.67;;;11.33;;
7365;SDS011;3723;52.220;8.792;2024-01-10T14:32:40;33.90;;;14.03;;
7365;SDS011;3723;52.220;8.792;2024-01-10T14:35:09;29.93;;;11.17;;
7365;SDS011;3723;52.220;8.792;2024-01-10T14:37:35;30.30;;;10.93;;
7365;SDS011;3723;52.220;8.792;2024-01-10T14:40:03;29.45;;;12.20;;
7365;SDS011;3723;52.220;8.792;2024-01-10T14:42:31;34.20;;;13.55;;
7365;SDS011;3723;52.220;8.792;2024-01-10T14:44:59;41.13;;;14.43;;
7365;SDS011;3723;52.220;8.792;2024-01-10T14:47:25;34.55;;;11.90;;
7365;SDS011;3723;52.220;8.792;2024-01-10T14:49:53;32.45;;;13.77;;
7365;SDS011;3723;52.220;8.792;2024-01-10T14:52:21;27.20;;;9.93;;
7365;SDS011;3723;52.220;8.792;2024-01-10T14:54:49;35.70;;;13.25;;
7365;SDS011;3723;52.220;8.792;2024-01-10T14:57:15;29.38;;;11.60;;
7365;SDS011;3723;52.220;8.792;2024-01-10T14:59:42;27.60;;;10.50;;
7365;SDS011;3723;52.220;8.792;2024-01-10T15:02:09;27.77;;;10.93;;
7365;SDS011;3723;52.220;8.792;2024-01-10T15:04:36;46.17;;;13.02;;